Ayfer Ka — TCTA3 — position and weather

sailwx.info

Track history (hours):
 
Tides and Currents Weather Stations Pressure Air Temp Water Temp Dewpoint Dewpoint Depression Visibility Wind Speed Wind Dir Waves Ship Positions

Ayfer Ka

Last reported at 2014-Sep-02 09:32 UTC. Time now 2014-Sep-02 21:33 UTC.
Position N 40°53' E 028°51'.

Length 91 m; draft 4.5 m.

Type: Ship (hazmat cat C). MMSI: 271000953.

Date/timePositionNaut miles runAvg speedWind from/ knotsBaromVisibWave heightAir tempDewpointWater temp
2014-Sep-02 09:32N 40°53' E 028°51'302 6.2
2014-Aug-31 08:27N 37°37' E 023°54'8 9.0
2014-Aug-31 07:32N 37°39' E 023°44'9 8.9
2014-Aug-31 06:33N 37°45' E 023°36'8 8.5
2014-Aug-31 05:33N 37°50' E 023°27'18 0.7
2014-Aug-30 03:04N 37°54' E 023°05'2 0.0
2014-Aug-28 13:33N 37°54' E 023°07'9 9.2
2014-Aug-28 12:33N 37°52' E 023°18'9 9.1
2014-Aug-28 11:33N 37°50' E 023°30'9 8.7
2014-Aug-28 10:34N 37°49' E 023°41'9 8.8
2014-Aug-28 09:33N 37°41' E 023°45'10 8.8
2014-Aug-28 08:25N 37°37' E 023°56'25 8.6
2014-Aug-28 05:32N 37°49' E 024°24'50 9.5
2014-Aug-28 00:19N 38°32' E 024°56'7 9.3
2014-Aug-27 23:33N 38°38' E 024°60'61 9.4
2014-Aug-27 17:04N 39°29' E 025°43'30 5.4
2014-Aug-27 11:33N 39°54' E 026°06'3410.2
2014-Aug-27 08:12N 40°19' E 026°36'6 9.7
2014-Aug-27 07:33N 40°24' E 026°41'9 4.4
2014-Aug-27 05:33N 40°29' E 026°51'85 8.3
2014-Aug-26 19:18N 40°45' E 028°41'7 9.3
2014-Aug-26 18:31N 40°46' E 028°50'9 9.5
2014-Aug-26 17:31N 40°47' E 029°03'9 7.3
2014-Aug-26 16:20N 40°48' E 029°14'5 6.5
2014-Aug-26 15:31N 40°45' E 029°19'  
Track history (hours):
 
Tides and Currents Weather Stations Pressure Air Temp Water Temp Dewpoint Dewpoint Depression Visibility Wind Speed Wind Dir Waves Ship Positions

Ayfer Ka

Last reported at 2014-Sep-02 09:32 UTC. Time now 2014-Sep-02 21:33 UTC.
Position N 40°53' E 028°51'.

Length 91 m; draft 4.5 m.

Type: Ship (hazmat cat C). MMSI: 271000953.

Date/timePositionNaut miles runAvg speedWind from/ knotsBaromVisibWave heightAir tempDewpointWater temp
2014-Sep-02 09:32N 40°53' E 028°51'302 6.2
2014-Aug-31 08:27N 37°37' E 023°54'8 9.0
2014-Aug-31 07:32N 37°39' E 023°44'9 8.9
2014-Aug-31 06:33N 37°45' E 023°36'8 8.5
2014-Aug-31 05:33N 37°50' E 023°27'18 0.7
2014-Aug-30 03:04N 37°54' E 023°05'2 0.0
2014-Aug-28 13:33N 37°54' E 023°07'9 9.2
2014-Aug-28 12:33N 37°52' E 023°18'9 9.1
2014-Aug-28 11:33N 37°50' E 023°30'9 8.7
2014-Aug-28 10:34N 37°49' E 023°41'9 8.8
2014-Aug-28 09:33N 37°41' E 023°45'10 8.8
2014-Aug-28 08:25N 37°37' E 023°56'25 8.6
2014-Aug-28 05:32N 37°49' E 024°24'50 9.5
2014-Aug-28 00:19N 38°32' E 024°56'7 9.3
2014-Aug-27 23:33N 38°38' E 024°60'61 9.4
2014-Aug-27 17:04N 39°29' E 025°43'30 5.4
2014-Aug-27 11:33N 39°54' E 026°06'3410.2
2014-Aug-27 08:12N 40°19' E 026°36'6 9.7
2014-Aug-27 07:33N 40°24' E 026°41'9 4.4
2014-Aug-27 05:33N 40°29' E 026°51'85 8.3
2014-Aug-26 19:18N 40°45' E 028°41'7 9.3
2014-Aug-26 18:31N 40°46' E 028°50'9 9.5
2014-Aug-26 17:31N 40°47' E 029°03'9 7.3
2014-Aug-26 16:20N 40°48' E 029°14'5 6.5
2014-Aug-26 15:31N 40°45' E 029°19'  

Dump ship's entire track history